Vulcan, Canada
Current Conditions -  °F | °C
As of 12:00 AM on Wednesday 22 Oct 2014 (Local Time) from CYQL Reporting Station
Clear Clear  
Wind Chill: 41°   Ceiling: Unl
Heat Index: 48°   Visibility: 9mi
Dew Point: 34°   Wind: 22mph
Humidity: 57%   Direction: 260°W
Pressure: 29.79"   Gusts: 29mph
Location:  50.4°N, 113.25°W
Report Text: CYQL 220600Z AUTO 26019G25KT 9SM CLR 09/01 A2979 RMK SLP096 DENSITY ALT 3200FT
Loading
Personal Weather Stations






























Interactive Weather Map New forecast layout! Learn more

10-Day Weather Forecast

Advertisements
Track Severe Weather on mobile